Time;durP1;ratioP1;P1;durP2;ratioP2;P2;SDS_P1;SDS_P2;PMS_P1;PMS_P2;Temp;Humidity;BMP_temperature;BMP_pressure;BME280_temperature;BME280_humidity;BME280_pressure;Samples;Min_cycle;Max_cycle;Signal;HPM_P1;HPM_P2
2022/09/01 00:02:15;;;;;;;3.63;0.80;;;15.70;99.90;;;;;;12488725;28;20172;-34
2022/09/01 00:08:17;;;;;;;5.97;0.70;;;15.60;99.90;;;;;;12494155;28;20045;-33
2022/09/01 00:14:23;;;;;;;4.70;0.60;;;15.80;99.90;;;;;;12480905;28;20623;-34
2022/09/01 00:20:32;;;;;;;2.00;0.80;;;15.70;99.90;;;;;;12444591;28;20054;-34
2022/09/01 00:26:34;;;;;;;1.75;0.50;;;15.80;99.90;;;;;;12429634;28;20490;-34
2022/09/01 00:32:36;;;;;;;1.80;0.60;;;15.50;99.90;;;;;;12420938;28;20053;-34
2022/09/01 00:38:38;;;;;;;2.38;0.82;;;15.50;99.90;;;;;;12412809;28;20049;-34
2022/09/01 00:44:40;;;;;;;0.93;0.50;;;15.40;99.90;;;;;;12416634;28;20046;-34
2022/09/01 00:50:42;;;;;;;3.47;0.60;;;15.40;99.90;;;;;;12405974;28;20521;-34
2022/09/01 00:56:49;;;;;;;1.52;0.60;;;15.30;99.90;;;;;;12409245;28;20046;-34
2022/09/01 01:02:59;;;;;;;3.90;0.63;;;15.30;99.90;;;;;;12419346;28;20073;-34
2022/09/01 01:09:01;;;;;;;3.83;0.65;;;15.30;99.90;;;;;;12412948;28;20508;-34
2022/09/01 01:15:05;;;;;;;1.23;0.52;;;15.10;99.90;;;;;;12416776;28;20144;-34
2022/09/01 01:27:37;;;;;;;2.28;0.68;;;15.10;99.90;;;;;;12466048;28;20136;-34
2022/09/01 01:33:55;;;;;;;1.73;0.60;;;15.20;99.90;;;;;;12484144;28;20106;-33
2022/09/01 01:39:57;;;;;;;3.10;0.90;;;15.30;99.90;;;;;;12486984;28;20468;-34
2022/09/01 01:46:01;;;;;;;2.03;0.80;;;15.20;99.90;;;;;;12478823;28;20448;-34
2022/09/01 01:52:03;;;;;;;2.92;0.70;;;15.30;99.90;;;;;;12484294;28;20053;-34
2022/09/01 01:58:10;;;;;;;5.05;0.77;;;15.20;99.90;;;;;;12479345;28;20052;-33
2022/09/01 02:04:14;;;;;;;;;;;15.10;99.90;;;;;;12482893;28;20045;-34
2022/09/01 02:10:15;;;;;;;2.70;0.80;;;15.00;99.90;;;;;;12479373;28;20023;-33
2022/09/01 02:16:19;;;;;;;4.13;0.85;;;15.00;99.90;;;;;;12481745;28;20069;-34
2022/09/01 02:22:21;;;;;;;3.25;0.90;;;15.00;99.90;;;;;;12488765;28;20053;-34
2022/09/01 02:28:23;;;;;;;3.58;1.10;;;14.90;99.90;;;;;;12478921;28;20049;-34
2022/09/01 02:34:27;;;;;;;2.00;0.77;;;14.90;99.90;;;;;;12465750;28;20570;-33
2022/09/01 02:40:31;;;;;;;2.00;0.68;;;14.90;99.90;;;;;;12454250;28;20505;-34
2022/09/01 02:46:36;;;;;;;3.17;0.70;;;14.80;99.90;;;;;;12459311;28;20126;-34
2022/09/01 02:52:39;;;;;;;3.58;1.55;;;14.80;99.90;;;;;;12456887;28;20464;-33
2022/09/01 02:58:46;;;;;;;2.17;0.90;;;14.70;99.90;;;;;;12456114;28;20099;-33
2022/09/01 03:04:49;;;;;;;1.45;0.65;;;14.80;99.90;;;;;;12457224;28;20564;-34
2022/09/01 03:10:52;;;;;;;1.48;0.80;;;14.90;99.90;;;;;;12454235;28;20358;-34
2022/09/01 03:16:54;;;;;;;2.60;0.90;;;14.80;99.90;;;;;;12447829;28;20053;-34
2022/09/01 03:22:58;;;;;;;1.27;0.77;;;14.80;99.90;;;;;;12458741;28;20056;-33
2022/09/01 03:29:00;;;;;;;2.60;0.80;;;14.70;99.90;;;;;;12461029;28;20512;-33
2022/09/01 03:35:02;;;;;;;3.13;1.00;;;14.60;99.90;;;;;;12490648;28;20574;-33
2022/09/01 03:41:05;;;;;;;2.35;0.90;;;14.50;99.90;;;;;;12487349;28;20109;-34
2022/09/01 03:47:09;;;;;;;7.32;0.85;;;14.30;99.90;;;;;;12488172;28;20053;-34
2022/09/01 03:53:21;;;;;;;1.30;0.75;;;14.30;99.90;;;;;;12483878;28;20539;-34
2022/09/01 03:59:24;;;;;;;9.70;1.00;;;14.30;99.90;;;;;;12477538;28;20045;-34
2022/09/01 04:05:28;;;;;;;3.95;0.80;;;14.10;99.90;;;;;;12479559;28;20044;-34
2022/09/01 04:11:31;;;;;;;3.27;1.00;;;14.20;99.90;;;;;;12473178;28;20049;-34
2022/09/01 04:23:56;;;;;;;2.67;0.85;;;14.00;99.90;;;;;;12487906;28;20042;-34
2022/09/01 04:30:00;;;;;;;1.83;0.90;;;14.00;99.90;;;;;;12471124;28;20095;-34
2022/09/01 04:36:04;;;;;;;2.07;0.80;;;14.00;99.90;;;;;;12473797;28;20497;-34
2022/09/01 04:42:07;;;;;;;3.17;0.90;;;14.10;99.90;;;;;;12466696;28;20128;-34
2022/09/01 04:48:09;;;;;;;5.40;1.03;;;14.20;99.90;;;;;;12471682;28;20295;-34
2022/09/01 04:54:13;;;;;;;2.75;0.77;;;14.10;99.90;;;;;;12474700;28;20049;-34
2022/09/01 05:00:23;;;;;;;2.35;0.93;;;14.00;99.90;;;;;;12468987;28;20087;-34
2022/09/01 05:06:26;;;;;;;1.33;0.70;;;14.00;99.90;;;;;;12470502;28;20046;-34
2022/09/01 05:12:28;;;;;;;2.45;0.90;;;13.90;99.90;;;;;;12467532;28;20124;-34
2022/09/01 05:18:30;;;;;;;6.43;1.02;;;13.90;99.90;;;;;;12470290;28;20049;-34
2022/09/01 05:24:33;;;;;;;3.40;1.00;;;13.70;99.90;;;;;;12478125;28;20291;-34
2022/09/01 05:30:42;;;;;;;4.63;0.90;;;13.60;99.90;;;;;;12476640;28;20048;-34
2022/09/01 05:36:45;;;;;;;4.80;1.10;;;13.90;99.90;;;;;;12486973;28;20053;-34
2022/09/01 05:42:46;;;;;;;2.58;1.00;;;13.70;99.90;;;;;;12479211;28;20493;-34
2022/09/01 05:48:50;;;;;;;2.38;1.10;;;13.90;99.90;;;;;;12487472;28;20485;-34
2022/09/01 05:54:52;;;;;;;4.17;1.10;;;14.00;99.90;;;;;;12482963;28;20091;-34
2022/09/01 06:00:57;;;;;;;2.20;1.00;;;14.10;99.90;;;;;;12481979;28;20052;-34
2022/09/01 06:06:59;;;;;;;2.90;1.15;;;14.00;99.90;;;;;;12484978;28;20134;-34
2022/09/01 06:13:14;;;;;;;4.07;1.20;;;13.90;99.90;;;;;;12475933;28;20062;-34
2022/09/01 06:19:18;;;;;;;2.28;1.20;;;14.10;99.90;;;;;;12476763;28;20061;-34
2022/09/01 06:25:21;;;;;;;5.25;1.20;;;14.30;99.90;;;;;;12478567;28;20128;-35
2022/09/01 06:31:25;;;;;;;5.55;1.23;;;14.50;99.90;;;;;;12465774;28;20088;-34
2022/09/01 06:37:27;;;;;;;2.97;1.10;;;14.60;99.90;;;;;;12469511;28;20432;-34
2022/09/01 06:43:30;;;;;;;5.28;1.17;;;14.80;99.90;;;;;;12460150;28;20131;-34
2022/09/01 06:49:33;;;;;;;2.58;1.00;;;14.90;99.90;;;;;;12470854;28;20049;-34
2022/09/01 06:55:39;;;;;;;1.98;0.90;;;15.10;99.90;;;;;;12457104;28;20037;-35
2022/09/01 07:01:41;;;;;;;5.05;1.05;;;15.30;99.90;;;;;;12452678;28;20049;-34
2022/09/01 07:07:54;;;;;;;1.77;0.80;;;15.40;99.90;;;;;;12460241;28;20132;-34
2022/09/01 07:14:06;;;;;;;2.67;1.00;;;15.70;99.90;;;;;;12452645;28;20049;-34
2022/09/01 07:20:19;;;;;;;4.60;1.10;;;15.80;99.90;;;;;;12458056;28;20687;-35
2022/09/01 07:26:25;;;;;;;2.80;1.00;;;16.00;99.90;;;;;;12462745;28;20037;-34
2022/09/01 07:32:29;;;;;;;2.78;1.00;;;16.20;99.90;;;;;;12476874;28;20049;-35
2022/09/01 07:38:52;;;;;;;2.20;0.63;;;16.40;99.90;;;;;;12475098;28;20057;-34
2022/09/01 07:45:15;;;;;;;1.77;0.80;;;16.60;99.90;;;;;;12474152;28;20939;-35
2022/09/01 07:51:35;;;;;;;1.95;0.80;;;16.80;99.90;;;;;;12482248;28;20060;-34
2022/09/01 07:57:41;;;;;;;2.40;0.90;;;17.00;99.90;;;;;;12472758;28;20049;-35
2022/09/01 08:03:45;;;;;;;1.25;0.77;;;17.20;99.90;;;;;;12480139;28;20106;-34
2022/09/01 08:09:46;;;;;;;3.00;1.38;;;17.30;99.90;;;;;;12485175;28;20054;-35
2022/09/01 08:15:48;;;;;;;5.47;1.00;;;17.50;99.90;;;;;;12485179;28;20094;-34
2022/09/01 08:22:10;;;;;;;4.35;0.93;;;17.70;99.90;;;;;;12485462;28;20045;-34
2022/09/01 08:28:13;;;;;;;5.10;1.08;;;17.80;99.90;;;;;;12493025;28;20141;-35
2022/09/01 08:34:15;;;;;;;3.27;1.00;;;17.90;99.90;;;;;;12459261;28;20126;-35
2022/09/01 08:40:21;;;;;;;4.43;1.08;;;18.10;99.90;;;;;;12466867;28;20096;-35
2022/09/01 08:46:33;;;;;;;4.00;1.00;;;18.30;99.90;;;;;;12467297;28;20565;-34
2022/09/01 08:52:40;;;;;;;4.88;0.90;;;18.20;99.90;;;;;;12473980;28;20118;-35
2022/09/01 08:58:42;;;;;;;2.88;1.08;;;18.30;99.90;;;;;;12467272;28;20107;-34
2022/09/01 09:05:02;;;;;;;2.20;0.80;;;18.70;99.90;;;;;;12470532;28;20217;-35
2022/09/01 09:11:25;;;;;;;3.90;1.10;;;19.00;99.90;;;;;;12473361;28;20499;-34
2022/09/01 09:17:38;;;;;;;4.15;0.80;;;19.10;99.90;;;;;;12464762;28;20107;-34
2022/09/01 09:23:45;;;;;;;7.80;1.10;;;19.30;99.90;;;;;;12464171;28;20041;-34
2022/09/01 09:29:58;;;;;;;3.50;0.90;;;19.40;99.90;;;;;;12471538;28;20477;-34
2022/09/01 09:36:28;;;;;;;3.78;0.90;;;19.70;99.90;;;;;;12483473;28;20056;-35
2022/09/01 09:42:30;;;;;;;4.85;0.80;;;20.00;99.90;;;;;;12485392;28;20049;-34
2022/09/01 09:48:37;;;;;;;3.40;0.70;;;20.10;99.90;;;;;;12481404;28;20093;-35
2022/09/01 09:54:57;;;;;;;2.92;0.68;;;20.20;99.90;;;;;;12477467;28;20086;-35
2022/09/01 10:01:08;;;;;;;2.78;0.73;;;20.30;99.90;;;;;;12484934;28;20095;-35
2022/09/01 10:07:23;;;;;;;1.50;0.65;;;20.80;99.90;;;;;;12484824;28;20072;-35
2022/09/01 10:13:28;;;;;;;2.72;0.65;;;20.90;99.90;;;;;;12487513;28;20080;-35
2022/09/01 10:19:34;;;;;;;2.95;0.50;;;21.00;99.90;;;;;;12480097;28;20179;-35
2022/09/01 10:25:38;;;;;;;4.50;0.83;;;21.40;99.90;;;;;;12496080;28;20072;-34
2022/09/01 10:31:40;;;;;;;;;;;21.50;99.90;;;;;;12467361;28;20504;-35
2022/09/01 10:37:42;;;;;;;2.67;0.70;;;21.30;99.90;;;;;;12471717;28;19956;-36
2022/09/01 10:43:49;;;;;;;4.93;0.60;;;21.50;99.90;;;;;;12464455;28;20144;-35
2022/09/01 10:49:51;;;;;;;2.47;0.75;;;21.70;99.90;;;;;;12461274;28;21057;-35
2022/09/01 10:56:32;;;;;;;6.25;0.90;;;22.00;99.90;;;;;;12458880;28;20103;-35
2022/09/01 11:02:37;;;;;;;1.15;0.50;;;22.00;99.90;;;;;;12477351;28;20098;-35
2022/09/01 11:08:59;;;;;;;3.92;0.43;;;22.10;99.90;;;;;;12469714;28;20049;-35
2022/09/01 11:15:25;;;;;;;0.90;0.52;;;22.20;99.90;;;;;;12486338;28;20041;-35
2022/09/01 11:21:29;;;;;;;2.38;0.70;;;21.20;99.90;;;;;;12473695;28;20056;-34
2022/09/01 11:27:49;;;;;;;3.92;0.80;;;21.10;99.90;;;;;;12465303;28;20103;-35
2022/09/01 11:34:10;;;;;;;1.52;0.50;;;20.80;99.90;;;;;;12478099;28;20132;-35
2022/09/01 11:40:29;;;;;;;1.77;0.60;;;21.10;99.90;;;;;;12479051;28;20057;-34
2022/09/01 11:46:35;;;;;;;0.88;0.40;;;21.50;99.90;;;;;;12478526;28;20048;-35
2022/09/01 11:52:37;;;;;;;1.60;0.50;;;22.00;99.90;;;;;;12476068;28;20045;-34
2022/09/01 11:58:40;;;;;;;2.63;0.60;;;22.10;99.90;;;;;;12486462;28;20118;-36
2022/09/01 12:04:42;;;;;;;3.50;0.77;;;21.80;99.90;;;;;;12485729;28;20136;-34
2022/09/01 12:10:45;;;;;;;1.70;0.43;;;21.20;99.90;;;;;;12484935;28;20520;-34
2022/09/01 12:17:05;;;;;;;0.80;0.50;;;20.90;99.90;;;;;;12485843;28;20426;-37
2022/09/01 12:23:30;;;;;;;1.13;0.55;;;20.90;99.90;;;;;;12474313;28;20304;-35
2022/09/01 12:29:32;;;;;;;2.40;0.70;;;21.70;99.90;;;;;;12483098;28;20513;-35
2022/09/01 12:35:34;;;;;;;1.73;0.70;;;22.40;99.90;;;;;;12482947;28;20521;-35
2022/09/01 12:41:38;;;;;;;1.48;0.60;;;22.30;99.90;;;;;;12485175;28;20390;-35
2022/09/01 12:47:46;;;;;;;1.90;0.55;;;22.00;99.90;;;;;;12489337;28;20477;-34
2022/09/01 12:53:58;;;;;;;3.15;0.50;;;22.40;99.90;;;;;;12485804;28;20038;-35
2022/09/01 13:00:22;;;;;;;1.58;0.57;;;22.60;99.90;;;;;;12484119;28;20122;-35
2022/09/01 13:06:24;;;;;;;1.33;0.50;;;22.50;99.90;;;;;;12484322;28;20107;-35
2022/09/01 13:12:26;;;;;;;0.75;0.40;;;22.50;99.90;;;;;;12482509;28;20172;-35
2022/09/01 13:18:28;;;;;;;2.42;0.47;;;22.20;99.90;;;;;;12483581;28;20077;-36
2022/09/01 13:24:29;;;;;;;2.17;0.63;;;22.40;99.90;;;;;;12478735;28;20505;-35
2022/09/01 13:30:33;;;;;;;3.00;0.50;;;22.10;99.90;;;;;;12482573;28;20045;-35
2022/09/01 13:36:35;;;;;;;0.95;0.50;;;22.30;99.90;;;;;;12483514;28;20083;-36
2022/09/01 13:42:51;;;;;;;3.25;0.68;;;22.20;99.90;;;;;;12479850;28;20056;-35
2022/09/01 13:48:53;;;;;;;1.10;0.57;;;21.50;99.90;;;;;;12482954;28;20489;-35
2022/09/01 13:55:05;;;;;;;2.88;0.60;;;21.80;99.90;;;;;;12480871;28;20042;-35
2022/09/01 14:01:07;;;;;;;2.78;0.63;;;22.60;99.90;;;;;;12482945;28;20061;-36
2022/09/01 14:07:09;;;;;;;1.70;0.60;;;22.70;99.90;;;;;;12479685;28;21070;-36
2022/09/01 14:13:12;;;;;;;0.90;0.40;;;22.20;99.90;;;;;;12477440;28;20045;-36
2022/09/01 14:19:14;;;;;;;3.20;0.60;;;21.70;99.90;;;;;;12482851;28;20115;-35
2022/09/01 14:25:18;;;;;;;3.08;0.50;;;21.90;99.90;;;;;;12485384;28;20045;-36
2022/09/01 14:31:21;;;;;;;4.60;0.60;;;22.50;99.90;;;;;;12484616;28;20098;-35
2022/09/01 14:37:23;;;;;;;0.73;0.40;;;22.70;99.90;;;;;;12482551;28;20126;-35
2022/09/01 14:43:25;;;;;;;2.95;0.50;;;22.80;99.90;;;;;;12476593;28;20461;-35
2022/09/01 14:49:32;;;;;;;2.55;0.40;;;22.80;99.90;;;;;;12482254;28;20102;-36
2022/09/01 14:55:34;;;;;;;1.98;0.40;;;22.90;99.90;;;;;;12469247;28;20041;-35
2022/09/01 15:01:35;;;;;;;1.02;0.50;;;23.20;99.90;;;;;;12479145;28;20049;-35
2022/09/01 15:07:38;;;;;;;1.30;0.40;;;23.10;99.90;;;;;;12478623;28;20049;-34
2022/09/01 15:13:40;;;;;;;3.03;0.50;;;23.00;99.90;;;;;;12475568;28;20440;-36
2022/09/01 15:19:42;;;;;;;1.25;0.47;;;23.10;99.90;;;;;;12482166;28;20187;-35
2022/09/01 15:25:44;;;;;;;5.57;0.50;;;23.20;99.90;;;;;;12478265;28;20042;-35
2022/09/01 15:31:46;;;;;;;2.97;0.52;;;23.10;99.90;;;;;;12488652;28;20049;-35
2022/09/01 15:37:50;;;;;;;2.25;0.40;;;22.30;99.90;;;;;;12491365;28;20103;-35
2022/09/01 15:43:52;;;;;;;1.10;0.70;;;21.90;99.90;;;;;;12489137;28;20041;-36
2022/09/01 15:49:54;;;;;;;2.83;0.60;;;21.60;99.90;;;;;;12490624;28;20559;-35
2022/09/01 15:55:56;;;;;;;0.70;0.40;;;21.80;99.90;;;;;;12481540;28;20478;-36
2022/09/01 16:01:57;;;;;;;1.35;0.50;;;22.40;99.90;;;;;;12487102;28;20054;-36
2022/09/01 16:08:01;;;;;;;1.08;0.40;;;22.70;99.90;;;;;;12492664;28;20440;-36
2022/09/01 16:14:03;;;;;;;2.97;0.57;;;22.60;99.90;;;;;;12481579;28;20136;-36
2022/09/01 16:20:22;;;;;;;2.25;0.50;;;22.70;99.90;;;;;;12483103;28;20421;-36
2022/09/01 16:26:23;;;;;;;1.02;0.50;;;22.40;99.90;;;;;;12457700;28;20045;-36
2022/09/01 16:32:25;;;;;;;1.48;0.50;;;22.30;99.90;;;;;;12489197;28;20083;-35
2022/09/01 16:38:34;;;;;;;4.05;0.50;;;21.90;99.90;;;;;;12488989;28;20053;-36
2022/09/01 16:44:56;;;;;;;2.17;0.40;;;21.60;99.90;;;;;;12485777;28;20041;-36
2022/09/01 16:51:15;;;;;;;1.85;0.50;;;21.30;99.90;;;;;;12483290;28;20120;-35
2022/09/01 16:57:26;;;;;;;4.03;0.50;;;21.20;99.90;;;;;;12485698;28;20126;-35
2022/09/01 17:03:42;;;;;;;1.63;0.52;;;21.20;99.90;;;;;;12486519;28;20159;-36
2022/09/01 17:09:55;;;;;;;1.65;0.50;;;21.30;99.90;;;;;;12482819;28;20183;-35
2022/09/01 17:16:28;;;;;;;1.58;0.43;;;21.20;99.90;;;;;;12485152;28;20463;-35
2022/09/01 17:22:31;;;;;;;0.82;0.40;;;21.00;99.90;;;;;;12481972;28;20455;-35
2022/09/01 17:29:01;;;;;;;0.80;0.50;;;20.90;99.90;;;;;;12486294;28;20046;-35
2022/09/01 17:35:22;;;;;;;1.52;0.40;;;20.80;99.90;;;;;;12477725;28;20099;-35
2022/09/01 17:41:36;;;;;;;2.03;0.60;;;20.60;99.90;;;;;;12486787;28;20057;-35
2022/09/01 17:48:01;;;;;;;2.05;0.40;;;20.40;99.90;;;;;;12486076;28;20099;-35
2022/09/01 17:54:24;;;;;;;2.67;0.60;;;20.30;99.90;;;;;;12477922;28;20076;-35
2022/09/01 18:00:33;;;;;;;1.40;0.70;;;20.20;99.90;;;;;;12478619;28;20049;-35
2022/09/01 18:06:54;;;;;;;1.80;0.60;;;20.10;99.90;;;;;;12479583;28;20451;-35
2022/09/01 18:13:02;;;;;;;2.58;0.52;;;20.00;99.90;;;;;;12475293;28;20041;-35
2022/09/01 18:19:15;;;;;;;1.45;0.30;;;19.90;99.90;;;;;;12471871;28;20057;-36
2022/09/01 18:25:21;;;;;;;2.95;0.52;;;19.70;99.90;;;;;;12477990;28;20478;-35
2022/09/01 18:31:56;;;;;;;4.43;0.40;;;19.70;99.90;;;;;;12478709;28;20513;-35
2022/09/01 18:38:16;;;;;;;2.38;0.68;;;19.60;99.90;;;;;;12483039;28;20053;-35
2022/09/01 18:44:33;;;;;;;3.08;0.50;;;19.50;99.90;;;;;;12478949;28;20041;-35
2022/09/01 18:50:56;;;;;;;0.73;0.40;;;19.40;99.90;;;;;;12483677;28;20045;-35
2022/09/01 18:56:59;;;;;;;1.45;0.50;;;19.30;99.90;;;;;;12472894;28;20046;-35
2022/09/01 19:03:51;;;;;;;3.95;0.60;;;19.20;99.90;;;;;;12482097;28;20046;-35
2022/09/01 19:10:05;;;;;;;1.67;0.57;;;19.20;99.90;;;;;;12407752;28;20045;-35
2022/09/01 19:16:17;;;;;;;5.05;0.50;;;19.20;99.90;;;;;;12469557;28;20478;-35
2022/09/01 19:22:43;;;;;;;0.90;0.43;;;19.10;99.90;;;;;;12474770;28;20053;-35
2022/09/01 19:29:03;;;;;;;1.30;0.50;;;19.10;99.90;;;;;;12460465;28;20543;-35
2022/09/01 19:35:12;;;;;;;2.72;1.05;;;18.90;99.90;;;;;;12477736;28;20182;-35
2022/09/01 19:41:43;;;;;;;2.25;0.43;;;18.90;99.90;;;;;;12481438;28;20045;-36
2022/09/01 19:47:58;;;;;;;3.45;1.05;;;18.80;99.90;;;;;;12476487;28;20080;-36
2022/09/01 19:54:27;;;;;;;1.38;0.47;;;18.80;99.90;;;;;;12475377;28;20052;-35
2022/09/01 20:00:57;;;;;;;3.78;0.60;;;18.70;99.90;;;;;;12468247;28;20045;-36
2022/09/01 20:07:00;;;;;;;0.60;0.40;;;18.70;99.90;;;;;;12475215;28;20075;-35
2022/09/01 20:13:02;;;;;;;1.02;0.30;;;18.60;99.90;;;;;;12487937;28;20476;-35
2022/09/01 20:26:05;;;;;;;2.03;0.40;;;18.40;99.90;;;;;;12085660;23;20043;-82
2022/09/01 20:32:08;;;;;;;3.22;0.30;;;18.30;99.90;;;;;;12387078;28;20096;-80
2022/09/01 20:44:57;;;;;;;0.82;0.30;;;18.30;99.90;;;;;;12387627;28;20042;-81
2022/09/01 20:51:28;;;;;;;5.55;0.40;;;18.20;99.90;;;;;;12371061;28;20046;-80
2022/09/01 20:57:43;;;;;;;2.15;0.50;;;18.10;99.90;;;;;;12374659;28;20054;-80
2022/09/01 21:04:11;;;;;;;0.85;0.30;;;18.10;99.90;;;;;;12380839;28;20100;-80
2022/09/01 21:10:25;;;;;;;1.67;0.50;;;18.00;99.90;;;;;;12386655;28;20518;-80
2022/09/01 21:16:39;;;;;;;2.90;0.40;;;18.00;99.90;;;;;;12388995;28;20108;-80
2022/09/01 21:22:41;;;;;;;0.20;0.20;;;17.90;99.90;;;;;;12354775;28;20462;-80
2022/09/01 21:28:45;;;;;;;2.15;0.40;;;17.80;99.90;;;;;;12343770;28;20051;-80
2022/09/01 21:34:49;;;;;;;2.00;0.50;;;17.80;99.90;;;;;;12344146;28;20047;-80
2022/09/01 21:40:52;;;;;;;2.03;0.50;;;17.90;99.90;;;;;;12342266;28;20506;-80
2022/09/01 21:46:55;;;;;;;3.00;0.60;;;17.90;99.90;;;;;;12339706;28;20050;-80
2022/09/01 21:52:57;;;;;;;1.02;0.40;;;18.00;99.90;;;;;;12335076;28;20043;-80
2022/09/01 21:58:59;;;;;;;0.93;0.45;;;18.20;99.90;;;;;;12321905;28;20077;-80
2022/09/01 22:05:04;;;;;;;0.85;0.40;;;17.80;99.90;;;;;;12376422;28;20047;-82
2022/09/01 22:11:08;;;;;;;6.25;0.50;;;17.60;99.90;;;;;;12380436;28;20053;-80
2022/09/01 22:17:10;;;;;;;;;;;17.50;99.90;;;;;;12373250;28;20053;-81
2022/09/01 22:23:13;;;;;;;3.15;0.35;;;17.40;99.90;;;;;;12358982;28;20361;-80
2022/09/01 22:29:17;;;;;;;1.50;0.50;;;17.30;99.90;;;;;;12355820;28;20061;-80
2022/09/01 22:35:19;;;;;;;1.17;0.40;;;17.20;99.90;;;;;;12322824;28;20142;-80
2022/09/01 22:41:22;;;;;;;1.55;0.40;;;17.00;99.90;;;;;;12321217;28;20321;-80
2022/09/01 22:47:24;;;;;;;2.53;0.40;;;16.90;99.90;;;;;;12341438;28;20104;-79
2022/09/01 22:53:26;;;;;;;0.93;0.45;;;16.80;99.90;;;;;;12335723;28;20108;-79
2022/09/01 22:59:28;;;;;;;1.63;0.40;;;16.80;99.90;;;;;;12339437;28;20050;-80
2022/09/01 23:05:30;;;;;;;3.05;1.00;;;16.70;99.90;;;;;;12327084;28;20043;-80
2022/09/01 23:11:32;;;;;;;2.85;0.38;;;16.60;99.90;;;;;;12337323;28;20046;-80
2022/09/01 23:17:36;;;;;;;3.08;0.57;;;16.50;99.90;;;;;;12318961;28;20175;-79
2022/09/01 23:23:39;;;;;;;1.77;0.30;;;16.50;99.90;;;;;;12338068;28;20050;-80
2022/09/01 23:29:42;;;;;;;1.02;0.50;;;16.70;99.90;;;;;;12309319;28;20108;-80
2022/09/01 23:35:48;;;;;;;5.65;1.40;;;16.60;99.90;;;;;;12337889;28;20055;-80
2022/09/01 23:41:50;;;;;;;1.98;0.40;;;16.60;99.90;;;;;;12331153;28;20055;-80
2022/09/01 23:47:52;;;;;;;3.00;0.70;;;16.50;99.90;;;;;;12341627;28;20051;-79
2022/09/01 23:53:55;;;;;;;1.38;0.52;;;16.60;99.90;;;;;;12332584;28;20101;-80
2022/09/01 23:59:56;;;;;;;1.02;0.40;;;16.60;99.90;;;;;;12338060;28;20532;-79
